Decoded Metar for KLQK ( in ) (IATA:) | Meteo·Mobile Aviation Weather
aviador You're here:

KLQK Decoded Metar

in
Report Time2019-02-16 16:55:00
UTC Time2019-02-16 17:12:49
Flight Rules mvfr MVFR
Wind120° at 05 kt
W.Decomp.*RWY 05: 1.7 kt HW 4.7 kt RCW
W.Rank120° ranks 21
Current wind is above 120° avg. (4.7)
Visibility9999 m
Phenomena:N/A
Clouds:Broken 026 Hf
Overcast 031 Hf
Expected CloudBase > 1,200 ft AGL from Temp-Dew spread
Ceiling2,600 ft
Temp16°C
Dew Point13°C (83% RH)
AAT15.2°C
QNH1007 hPa
Raw Report
KLQK 161655Z AUTO 12005KT 10SM BKN026 OVC031 16/13 A2974 RMK AO2
T01600127=

Extra information for KLQK:More info

Social comments